createdAt,value
2022-09-15T00:01:52.031Z,59.10
2022-09-15T00:04:18.810Z,59.10
2022-09-15T00:06:45.490Z,59.10
2022-09-15T00:09:12.191Z,59.10
2022-09-15T00:11:39.296Z,59.20
2022-09-15T00:14:07.861Z,59.20
2022-09-15T00:16:34.722Z,59.20
2022-09-15T00:19:01.848Z,59.20
2022-09-15T00:21:32.017Z,59.20
2022-09-15T00:24:00.502Z,59.20
2022-09-15T00:26:28.619Z,59.20
2022-09-15T00:28:56.939Z,59.20
2022-09-15T00:31:25.177Z,59.20
2022-09-15T00:33:54.143Z,59.20
2022-09-15T00:36:22.571Z,59.20
2022-09-15T00:38:50.034Z,59.20
2022-09-15T00:41:19.093Z,59.10
2022-09-15T00:43:54.534Z,59.20
2022-09-15T00:46:28.999Z,59.20
2022-09-15T00:49:24.863Z,59.20
2022-09-15T00:51:54.715Z,59.20
2022-09-15T00:54:44.214Z,59.20
2022-09-15T00:57:17.931Z,59.20
2022-09-15T00:59:45.962Z,59.20
2022-09-15T01:02:22.970Z,59.20
2022-09-15T01:04:57.423Z,59.20
2022-09-15T01:07:32.167Z,59.10
2022-09-15T01:10:04.259Z,59.20
2022-09-15T01:12:31.148Z,59.20
2022-09-15T01:15:01.721Z,59.30
2022-09-15T01:17:39.808Z,59.30
2022-09-15T01:20:06.504Z,59.30
2022-09-15T01:22:52.956Z,59.20
2022-09-15T01:26:07.518Z,59.20
2022-09-15T01:28:43.840Z,59.10
2022-09-15T01:31:24.970Z,59.10
2022-09-15T01:34:00.728Z,59.20
2022-09-15T01:36:42.172Z,59.20
2022-09-15T01:39:26.814Z,59.20
2022-09-15T01:41:55.903Z,59.10
2022-09-15T01:44:27.652Z,59.20
2022-09-15T01:47:01.726Z,59.10
2022-09-15T01:49:33.866Z,59.20
2022-09-15T01:52:00.807Z,59.20
2022-09-15T01:54:32.863Z,59.20
2022-09-15T01:56:59.494Z,59.20
2022-09-15T01:59:26.102Z,59.20
2022-09-15T02:01:57.329Z,59.20
2022-09-15T02:04:31.027Z,59.10
2022-09-15T02:07:13.318Z,59.20
2022-09-15T02:09:58.744Z,59.20
2022-09-15T02:12:40.136Z,59.20
2022-09-15T02:15:14.957Z,59.10
2022-09-15T02:17:45.946Z,59.10
2022-09-15T02:20:23.599Z,59.10
2022-09-15T02:22:55.756Z,59.20
2022-09-15T02:25:31.974Z,59.10
2022-09-15T02:28:03.917Z,59.10
2022-09-15T02:30:31.649Z,59.10
2022-09-15T02:33:02.686Z,59.10
2022-09-15T02:35:33.559Z,59.10
2022-09-15T02:38:01.065Z,59.20
2022-09-15T02:40:28.989Z,59.20
2022-09-15T02:42:57.968Z,59.10
2022-09-15T02:45:25.616Z,59.20
2022-09-15T02:47:52.323Z,59.10
2022-09-15T02:50:20.359Z,59.10
2022-09-15T02:52:47.087Z,59.10
2022-09-15T02:55:13.742Z,59.10
2022-09-15T02:57:40.368Z,59.10
2022-09-15T03:00:14.856Z,59.10
2022-09-15T03:02:50.111Z,59.10
2022-09-15T03:05:22.363Z,59.10
2022-09-15T03:07:49.227Z,59.10
2022-09-15T03:10:16.094Z,59.70
2022-09-15T03:12:45.347Z,59.10
2022-09-15T03:15:14.500Z,59.10
2022-09-15T03:17:42.845Z,59.10
2022-09-15T03:20:11.724Z,59.10
2022-09-15T03:22:39.131Z,59.10
2022-09-15T03:25:06.553Z,59.10
2022-09-15T03:27:34.666Z,59.20
2022-09-15T03:30:01.823Z,59.10
2022-09-15T03:32:28.736Z,59.20
2022-09-15T03:34:58.453Z,59.20
2022-09-15T03:37:25.719Z,59.20
2022-09-15T03:39:52.313Z,59.20
2022-09-15T03:42:19.758Z,59.20
2022-09-15T03:44:46.393Z,59.20
2022-09-15T03:47:13.047Z,59.20
2022-09-15T03:49:39.634Z,59.20
2022-09-15T03:52:06.239Z,59.20
2022-09-15T03:54:32.816Z,59.20
2022-09-15T03:56:59.448Z,59.20
2022-09-15T03:59:26.038Z,59.20
2022-09-15T04:01:52.837Z,59.20
2022-09-15T04:04:19.477Z,59.20
2022-09-15T04:06:46.253Z,59.20
2022-09-15T04:09:12.924Z,59.10
2022-09-15T04:11:40.396Z,59.10
2022-09-15T04:14:06.984Z,59.20
2022-09-15T04:16:33.915Z,59.20
2022-09-15T04:19:00.788Z,59.10
2022-09-15T04:21:27.384Z,59.10
2022-09-15T04:23:54.418Z,59.10
2022-09-15T04:26:39.323Z,59.10
2022-09-15T04:29:12.953Z,59.10
2022-09-15T04:31:39.710Z,59.10
2022-09-15T04:34:06.325Z,59.10
2022-09-15T04:36:32.921Z,59.10
2022-09-15T04:38:59.543Z,59.10
2022-09-15T04:41:27.081Z,59.10
2022-09-15T04:43:53.796Z,59.10
2022-09-15T04:46:20.754Z,59.10
2022-09-15T04:48:48.685Z,59.10
2022-09-15T04:51:18.081Z,59.00
2022-09-15T04:53:45.083Z,59.10
2022-09-15T04:56:17.158Z,59.10
2022-09-15T04:58:48.176Z,59.10
2022-09-15T05:01:27.312Z,59.10
2022-09-15T05:03:54.508Z,59.10
2022-09-15T05:06:26.744Z,59.10
2022-09-15T05:08:55.501Z,59.10
2022-09-15T05:11:23.055Z,59.10
2022-09-15T05:13:50.158Z,59.10
2022-09-15T05:16:19.718Z,59.10
2022-09-15T05:18:48.170Z,59.10
2022-09-15T05:21:16.757Z,59.10
2022-09-15T05:23:43.657Z,59.10
2022-09-15T05:26:15.788Z,59.10
2022-09-15T05:28:42.668Z,59.10
2022-09-15T05:31:17.872Z,59.20
2022-09-15T05:33:45.724Z,59.10
2022-09-15T05:36:14.278Z,59.00
2022-09-15T05:38:41.299Z,59.00
2022-09-15T05:41:11.344Z,59.00
2022-09-15T05:43:39.508Z,59.00
2022-09-15T05:46:07.695Z,59.00
2022-09-15T05:48:35.008Z,59.00
2022-09-15T05:51:01.834Z,59.00
2022-09-15T05:53:28.915Z,59.00
2022-09-15T05:55:57.152Z,59.00
2022-09-15T05:58:24.613Z,59.10
2022-09-15T06:00:53.209Z,59.30
2022-09-15T06:03:20.924Z,59.30
2022-09-15T06:05:47.820Z,59.20
2022-09-15T06:08:14.382Z,59.10
2022-09-15T06:10:41.282Z,59.00
2022-09-15T06:13:08.028Z,59.00
2022-09-15T06:15:34.673Z,59.00
2022-09-15T06:18:01.295Z,59.00
2022-09-15T06:20:28.239Z,59.00
2022-09-15T06:22:56.060Z,59.60
2022-09-15T06:25:22.860Z,59.00
2022-09-15T06:27:50.443Z,59.10
2022-09-15T06:30:17.776Z,59.00
2022-09-15T06:32:48.145Z,59.10
2022-09-15T06:35:15.448Z,59.00
2022-09-15T06:37:42.089Z,59.10
2022-09-15T06:40:09.199Z,59.10
2022-09-15T06:42:35.852Z,59.10
2022-09-15T06:45:02.915Z,59.10
2022-09-15T06:47:33.778Z,59.20
2022-09-15T06:50:01.021Z,59.20
2022-09-15T06:52:27.934Z,59.20
2022-09-15T06:54:54.579Z,59.20
2022-09-15T06:57:21.151Z,59.20
2022-09-15T06:59:47.811Z,59.10
2022-09-15T07:02:14.546Z,59.10
2022-09-15T07:04:41.228Z,59.10
2022-09-15T07:07:07.996Z,59.00
2022-09-15T07:09:34.571Z,59.00
2022-09-15T07:12:01.535Z,59.10
2022-09-15T07:14:28.168Z,59.00
2022-09-15T07:16:54.747Z,59.10
2022-09-15T07:19:21.572Z,59.10
2022-09-15T07:21:48.235Z,59.00
2022-09-15T07:24:15.928Z,59.00
2022-09-15T07:26:42.596Z,59.00
2022-09-15T07:29:09.646Z,59.00
2022-09-15T07:31:38.604Z,59.00
2022-09-15T07:34:06.191Z,59.00
2022-09-15T07:36:32.884Z,59.00
2022-09-15T07:38:59.491Z,59.00
2022-09-15T07:41:28.588Z,59.00
2022-09-15T07:43:57.493Z,59.00
2022-09-15T07:46:26.200Z,59.00
2022-09-15T07:48:56.321Z,59.00
2022-09-15T07:51:23.648Z,59.10
2022-09-15T07:53:50.843Z,59.20
2022-09-15T07:56:18.443Z,59.20
2022-09-15T07:58:49.056Z,59.10
2022-09-15T08:01:16.878Z,59.10
2022-09-15T08:03:46.181Z,59.00
2022-09-15T08:06:13.581Z,59.10
2022-09-15T08:08:40.894Z,59.10
2022-09-15T08:11:18.556Z,59.10
2022-09-15T08:13:50.274Z,59.20
2022-09-15T08:16:19.398Z,59.20
2022-09-15T08:18:46.648Z,59.20
2022-09-15T08:21:20.200Z,59.10
2022-09-15T08:23:51.996Z,59.10
2022-09-15T08:26:18.660Z,59.10
2022-09-15T08:28:45.803Z,59.10
2022-09-15T08:31:13.782Z,59.10
2022-09-15T08:33:45.267Z,59.10
2022-09-15T08:36:12.430Z,59.10
2022-09-15T08:38:40.678Z,59.10
2022-09-15T08:41:29.185Z,59.10
2022-09-15T08:44:08.175Z,59.10
2022-09-15T08:46:42.846Z,59.70
2022-09-15T08:49:35.557Z,59.10
2022-09-15T08:52:12.808Z,59.10
2022-09-15T08:54:39.487Z,59.20
2022-09-15T08:57:13.973Z,59.20
2022-09-15T08:59:40.693Z,59.20
2022-09-15T09:02:26.322Z,59.20
2022-09-15T09:05:21.659Z,59.30
2022-09-15T09:08:07.097Z,59.40
2022-09-15T09:10:51.173Z,59.40
2022-09-15T09:13:38.807Z,59.40
2022-09-15T09:16:20.437Z,59.30
2022-09-15T09:18:49.891Z,59.30
2022-09-15T09:21:26.494Z,59.30
2022-09-15T09:24:05.548Z,59.30
2022-09-15T09:26:36.151Z,59.40
2022-09-15T09:29:15.827Z,59.40
2022-09-15T09:31:44.514Z,59.40
2022-09-15T09:34:33.656Z,59.30
2022-09-15T09:37:09.310Z,59.30
2022-09-15T09:39:36.268Z,59.30
2022-09-15T09:42:05.704Z,59.30
2022-09-15T09:44:32.797Z,59.30
2022-09-15T09:47:00.566Z,59.30
2022-09-15T09:49:50.284Z,59.30
2022-09-15T09:52:46.423Z,59.30
2022-09-15T09:55:18.914Z,59.30
2022-09-15T09:57:45.532Z,59.30
2022-09-15T10:00:33.019Z,59.30
2022-09-15T10:03:11.215Z,59.30
2022-09-15T10:05:37.941Z,59.30
2022-09-15T10:08:04.653Z,59.30
2022-09-15T10:10:32.345Z,59.30
2022-09-15T10:13:02.887Z,59.30
2022-09-15T10:15:40.452Z,59.30
2022-09-15T10:18:07.566Z,59.30
2022-09-15T10:20:49.410Z,59.20
2022-09-15T10:23:18.944Z,59.20
2022-09-15T10:26:01.360Z,59.20
2022-09-15T10:28:28.384Z,59.20
2022-09-15T10:31:16.311Z,59.20
2022-09-15T10:33:47.777Z,59.20
2022-09-15T10:36:16.769Z,59.80
2022-09-15T10:38:58.703Z,59.20
2022-09-15T10:41:30.945Z,59.20
2022-09-15T10:44:22.819Z,59.10
2022-09-15T10:46:49.334Z,59.20
2022-09-15T10:49:44.001Z,59.10
2022-09-15T10:52:45.579Z,59.20
2022-09-15T10:55:53.394Z,59.10
2022-09-15T10:58:47.036Z,59.10
2022-09-15T11:01:28.638Z,59.00
2022-09-15T11:04:32.176Z,59.00
2022-09-15T11:07:10.611Z,59.00
2022-09-15T11:09:50.579Z,59.00
2022-09-15T11:12:41.336Z,59.00
2022-09-15T11:15:37.516Z,59.00
2022-09-15T11:18:26.723Z,59.00
2022-09-15T11:21:21.709Z,59.00
2022-09-15T11:24:23.792Z,59.00
2022-09-15T11:27:12.317Z,59.00
2022-09-15T11:29:50.955Z,59.60
2022-09-15T11:32:27.623Z,59.00
2022-09-15T11:35:04.251Z,59.00
2022-09-15T11:37:39.512Z,59.00
2022-09-15T11:40:12.959Z,59.00
2022-09-15T11:42:46.697Z,59.00
2022-09-15T11:45:23.140Z,59.00
2022-09-15T11:48:05.012Z,59.00
2022-09-15T11:50:36.860Z,58.90
2022-09-15T11:53:30.876Z,58.90
2022-09-15T11:56:13.607Z,58.90
2022-09-15T11:59:03.630Z,58.90
2022-09-15T12:01:41.179Z,58.90
2022-09-15T12:04:24.420Z,58.90
2022-09-15T12:07:08.733Z,58.90
2022-09-15T12:09:39.053Z,58.90
2022-09-15T12:12:16.308Z,59.50
2022-09-15T12:14:45.104Z,58.80
2022-09-15T12:17:31.487Z,58.90
2022-09-15T12:20:15.907Z,58.90
2022-09-15T12:22:56.738Z,58.90
2022-09-15T12:25:33.260Z,58.90
2022-09-15T12:28:21.603Z,58.90
2022-09-15T12:30:49.509Z,58.90
2022-09-15T12:33:54.636Z,58.90
2022-09-15T12:36:49.163Z,58.90
2022-09-15T12:39:42.171Z,58.90
2022-09-15T12:42:31.273Z,58.90
2022-09-15T12:45:22.531Z,58.90
2022-09-15T12:47:55.591Z,58.90
2022-09-15T12:50:27.386Z,58.90
2022-09-15T12:53:01.078Z,59.00
2022-09-15T12:55:34.400Z,58.90
2022-09-15T12:58:33.145Z,58.90
2022-09-15T13:01:22.720Z,58.90
2022-09-15T13:03:57.536Z,58.90
2022-09-15T13:06:30.669Z,58.90
2022-09-15T13:09:05.422Z,58.90
2022-09-15T13:11:37.204Z,58.90
2022-09-15T13:14:04.009Z,58.90
2022-09-15T13:16:52.639Z,58.90
2022-09-15T13:19:35.780Z,58.90
2022-09-15T13:22:05.244Z,58.90
2022-09-15T13:24:50.716Z,58.90
2022-09-15T13:27:21.843Z,58.90
2022-09-15T13:29:54.455Z,58.90
2022-09-15T13:32:57.462Z,58.90
2022-09-15T13:35:42.762Z,58.80
2022-09-15T13:38:32.250Z,58.80
2022-09-15T13:41:20.131Z,58.80
2022-09-15T13:43:57.732Z,58.80
2022-09-15T13:46:52.561Z,58.80
2022-09-15T13:49:39.990Z,58.80
2022-09-15T13:52:37.260Z,58.80
2022-09-15T13:55:26.092Z,58.90
2022-09-15T14:00:51.598Z,58.80
2022-09-15T14:03:25.644Z,58.80
2022-09-15T14:05:56.463Z,58.80
2022-09-15T14:08:33.169Z,58.80
2022-09-15T14:11:04.232Z,58.80
2022-09-15T14:13:31.163Z,58.70
2022-09-15T14:16:23.737Z,58.70
2022-09-15T14:18:51.472Z,58.70
2022-09-15T14:21:24.149Z,58.70
2022-09-15T14:23:53.087Z,58.70
2022-09-15T14:26:23.104Z,58.70
2022-09-15T14:28:52.805Z,58.70
2022-09-15T14:31:32.190Z,58.70
2022-09-15T14:34:00.285Z,58.70
2022-09-15T14:36:31.277Z,58.60
2022-09-15T14:39:20.395Z,58.60
2022-09-15T14:41:47.882Z,58.60
2022-09-15T14:47:28.298Z,58.60
2022-09-15T14:50:15.747Z,58.50
2022-09-15T14:52:47.105Z,58.60
2022-09-15T14:55:30.533Z,58.60
2022-09-15T14:58:15.956Z,58.50
2022-09-15T15:01:06.616Z,58.50
2022-09-15T15:03:45.774Z,58.50
2022-09-15T15:06:28.892Z,59.10
2022-09-15T15:09:21.258Z,58.50
2022-09-15T15:11:56.636Z,58.50
2022-09-15T15:17:08.415Z,58.50
2022-09-15T15:19:40.552Z,58.50
2022-09-15T15:22:20.399Z,58.50
2022-09-15T15:24:51.844Z,58.50
2022-09-15T15:27:33.593Z,58.50
2022-09-15T15:30:26.649Z,58.50
2022-09-15T15:32:54.723Z,58.50
2022-09-15T15:35:21.465Z,58.50
2022-09-15T15:37:49.296Z,58.50
2022-09-15T15:40:23.082Z,58.50
2022-09-15T15:43:06.196Z,58.50
2022-09-15T15:45:48.672Z,58.40
2022-09-15T15:48:15.315Z,58.40
2022-09-15T15:50:42.197Z,58.50
2022-09-15T15:53:08.761Z,58.40
2022-09-15T15:55:40.770Z,58.40
2022-09-15T15:58:08.568Z,58.20
2022-09-15T16:00:37.892Z,58.30
2022-09-15T16:03:05.508Z,58.30
2022-09-15T16:05:33.799Z,58.20
2022-09-15T16:08:06.908Z,58.20
2022-09-15T16:10:44.492Z,58.30
2022-09-15T16:13:15.779Z,58.30
2022-09-15T16:15:43.820Z,58.90
2022-09-15T16:18:11.137Z,58.30
2022-09-15T16:20:38.688Z,58.30
2022-09-15T16:23:05.483Z,58.30
2022-09-15T16:25:57.556Z,58.30
2022-09-15T16:28:24.136Z,58.30
2022-09-15T16:30:50.830Z,58.30
2022-09-15T16:33:18.615Z,58.30
2022-09-15T16:35:57.438Z,58.30
2022-09-15T16:38:25.817Z,58.30
2022-09-15T16:40:52.690Z,58.30
2022-09-15T16:43:22.376Z,58.30
2022-09-15T16:45:50.027Z,58.30
2022-09-15T16:48:17.188Z,58.30
2022-09-15T16:53:31.329Z,58.30
2022-09-15T16:55:57.955Z,58.40
2022-09-15T16:58:24.644Z,58.30
2022-09-15T17:00:52.477Z,58.30
2022-09-15T17:03:21.477Z,58.30
2022-09-15T17:05:53.155Z,58.30
2022-09-15T17:08:27.062Z,58.30
2022-09-15T17:10:58.604Z,59.00
2022-09-15T17:13:29.568Z,58.30
2022-09-15T17:15:57.852Z,58.30
2022-09-15T17:18:24.812Z,58.30
2022-09-15T17:20:52.052Z,58.30
2022-09-15T17:23:27.764Z,58.30
2022-09-15T17:25:58.904Z,58.30
2022-09-15T17:28:28.785Z,58.30
2022-09-15T17:31:00.805Z,58.30
2022-09-15T17:33:28.275Z,58.30
2022-09-15T17:35:55.466Z,58.30
2022-09-15T17:38:22.386Z,58.30
2022-09-15T17:40:50.371Z,58.30
2022-09-15T17:43:21.835Z,58.30
2022-09-15T17:45:49.636Z,58.30
2022-09-15T17:48:16.729Z,58.30
2022-09-15T17:50:45.231Z,58.30
2022-09-15T17:53:23.462Z,58.30
2022-09-15T17:55:51.122Z,58.30
2022-09-15T17:58:18.086Z,58.30
2022-09-15T18:00:45.647Z,58.30
2022-09-15T18:03:21.878Z,58.30
2022-09-15T18:05:48.675Z,58.30
2022-09-15T18:08:16.771Z,58.30
2022-09-15T18:10:44.110Z,58.40
2022-09-15T18:13:15.505Z,58.90
2022-09-15T18:15:42.844Z,58.30
2022-09-15T18:18:16.214Z,58.30
2022-09-15T18:20:43.248Z,58.30
2022-09-15T18:23:18.644Z,58.30
2022-09-15T18:25:49.121Z,58.40
2022-09-15T18:28:17.032Z,58.40
2022-09-15T18:30:46.518Z,58.40
2022-09-15T18:33:19.784Z,58.40
2022-09-15T18:35:48.311Z,58.30
2022-09-15T18:38:15.354Z,58.40
2022-09-15T18:40:50.434Z,58.30
2022-09-15T18:43:17.275Z,58.40
2022-09-15T18:45:44.312Z,58.40
2022-09-15T18:48:13.010Z,58.30
2022-09-15T18:50:40.987Z,58.40
2022-09-15T18:53:07.633Z,58.40
2022-09-15T18:55:34.267Z,58.40
2022-09-15T18:58:01.242Z,58.40
2022-09-15T19:00:28.892Z,58.40
2022-09-15T19:03:03.623Z,58.40
2022-09-15T19:05:31.076Z,58.40
2022-09-15T19:07:58.050Z,58.40
2022-09-15T19:10:26.736Z,58.40
2022-09-15T19:12:54.301Z,58.40
2022-09-15T19:15:23.662Z,58.40
2022-09-15T19:17:50.547Z,58.40
2022-09-15T19:20:17.406Z,58.40
2022-09-15T19:22:44.015Z,58.40
2022-09-15T19:25:11.456Z,58.40
2022-09-15T19:27:39.511Z,58.30
2022-09-15T19:30:09.717Z,58.30
2022-09-15T19:32:37.665Z,58.40
2022-09-15T19:35:04.824Z,58.30
2022-09-15T19:37:31.436Z,58.40
2022-09-15T19:39:58.088Z,58.30
2022-09-15T19:42:24.733Z,58.30
2022-09-15T19:44:51.356Z,58.40
2022-09-15T19:47:17.995Z,58.30
2022-09-15T19:49:44.598Z,58.30
2022-09-15T19:52:12.685Z,58.30
2022-09-15T19:54:39.291Z,58.40
2022-09-15T19:57:05.945Z,58.30
2022-09-15T19:59:32.549Z,58.30
2022-09-15T20:02:00.554Z,58.30
2022-09-15T20:04:27.929Z,58.30
2022-09-15T20:06:54.747Z,58.30
2022-09-15T20:09:21.338Z,58.30
2022-09-15T20:11:48.034Z,58.30
2022-09-15T20:14:14.865Z,58.30
2022-09-15T20:16:41.580Z,58.20
2022-09-15T20:19:08.590Z,58.30
2022-09-15T20:21:53.005Z,58.30
2022-09-15T20:24:20.546Z,58.30
2022-09-15T20:26:47.417Z,58.30
2022-09-15T20:29:14.255Z,58.30
2022-09-15T20:31:41.147Z,58.30
2022-09-15T20:34:07.824Z,58.30
2022-09-15T20:36:36.732Z,58.30
2022-09-15T20:39:05.605Z,58.30
2022-09-15T20:41:32.424Z,58.30
2022-09-15T20:43:59.541Z,58.30
2022-09-15T20:46:26.855Z,58.30
2022-09-15T20:48:53.513Z,58.30
2022-09-15T20:51:23.659Z,58.20
2022-09-15T20:53:54.657Z,58.20
2022-09-15T20:56:25.257Z,58.20
2022-09-15T20:58:56.655Z,58.20
2022-09-15T21:01:25.310Z,58.20
2022-09-15T21:03:52.068Z,58.20
2022-09-15T21:06:21.438Z,58.20
2022-09-15T21:08:48.865Z,58.20
2022-09-15T21:11:17.436Z,58.20
2022-09-15T21:13:44.957Z,58.20
2022-09-15T21:16:14.946Z,58.20
2022-09-15T21:18:42.742Z,58.10
2022-09-15T21:21:14.404Z,58.20
2022-09-15T21:23:43.996Z,58.20
2022-09-15T21:26:13.644Z,58.10
2022-09-15T21:28:41.162Z,58.20
2022-09-15T21:31:33.219Z,58.10
2022-09-15T21:34:00.091Z,58.20
2022-09-15T21:36:29.424Z,58.20
2022-09-15T21:38:58.142Z,58.10
2022-09-15T21:41:27.228Z,58.20
2022-09-15T21:43:54.964Z,58.10
2022-09-15T21:46:24.913Z,58.10
2022-09-15T21:48:51.719Z,58.10
2022-09-15T21:51:24.314Z,58.10
2022-09-15T21:53:53.669Z,58.10
2022-09-15T21:56:21.202Z,58.10
2022-09-15T21:58:48.548Z,58.10
2022-09-15T22:01:19.535Z,58.10
2022-09-15T22:03:51.419Z,58.10
2022-09-15T22:06:19.187Z,58.10
2022-09-15T22:08:46.663Z,58.10
2022-09-15T22:11:13.646Z,58.10
2022-09-15T22:13:42.968Z,58.10
2022-09-15T22:16:18.185Z,58.10
2022-09-15T22:18:45.211Z,58.10
2022-09-15T22:21:17.405Z,58.10
2022-09-15T22:23:45.934Z,58.10
2022-09-15T22:26:20.453Z,58.10
2022-09-15T22:28:47.777Z,58.10
2022-09-15T22:31:16.401Z,58.10
2022-09-15T22:33:43.344Z,58.00
2022-09-15T22:36:15.103Z,58.00
2022-09-15T22:38:42.387Z,58.00
2022-09-15T22:41:13.010Z,58.00
2022-09-15T22:43:41.343Z,58.00
2022-09-15T22:46:08.517Z,58.00
2022-09-15T22:48:39.683Z,58.00
2022-09-15T22:51:09.636Z,58.10
2022-09-15T22:53:36.227Z,58.00
2022-09-15T22:56:08.882Z,58.10
2022-09-15T22:58:36.712Z,58.00
2022-09-15T23:01:09.548Z,58.10
2022-09-15T23:03:37.431Z,58.00
2022-09-15T23:06:05.305Z,57.90
2022-09-15T23:08:32.856Z,58.00
2022-09-15T23:11:13.273Z,58.00
2022-09-15T23:13:41.004Z,58.00
2022-09-15T23:16:08.725Z,58.00
2022-09-15T23:18:35.821Z,57.90
2022-09-15T23:21:07.160Z,57.90
2022-09-15T23:23:35.842Z,58.00
2022-09-15T23:26:04.217Z,57.90
2022-09-15T23:28:31.009Z,58.00
2022-09-15T23:30:58.724Z,58.00
2022-09-15T23:33:26.641Z,57.90
2022-09-15T23:35:53.261Z,58.00
2022-09-15T23:38:21.372Z,57.90
2022-09-15T23:40:49.506Z,58.00
2022-09-15T23:43:16.656Z,58.00
2022-09-15T23:45:44.194Z,57.90
2022-09-15T23:48:11.209Z,57.90
2022-09-15T23:50:38.623Z,57.90
2022-09-15T23:53:06.243Z,57.90
2022-09-15T23:55:33.423Z,58.50
2022-09-15T23:58:00.085Z,57.90
